Terminal Aerodrome Forecast
Issued by NWS

Current Version | Previous Version | Graphics & Text | Print | Product List | Glossary On
Versions: 1 2 3 4 5 6 7 8 9 10 11 12 13 14 15 16 17 18 19 20 21 22 23
000
FTUS41 KRLX 180156 AAA
TAFCKB
TAF AMD
KCKB 180156Z 1802/1824 17004KT 2SM RASN BR OVC006
      TEMPO 1802/1804 5SM -RA BR BKN025
     FM180400 24003KT 5SM -RA BR OVC015
      TEMPO 1804/1806 2SM -DZRASN OVC006
     FM180600 26008KT 6SM -RA BR OVC015
      TEMPO 1806/1809 4SM -DZ BR OVC008
     FM181400 29005KT P6SM BKN015
     FM181600 27004KT P6SM BKN025
     FM181800 19004KT P6SM SCT035=

USA.gov is the U.S. government's official web portal to all federal, state and local government web resources and services.